sensor_id;sensor_type;location;lat;lon;timestamp;P1;durP1;ratioP1;P2;durP2;ratioP2
7426;SDS011;3755;59.316;18.092;2023-02-04T01:20:00;3.33;;;1.13;;
7426;SDS011;3755;59.316;18.092;2023-02-04T01:22:41;4.23;;;1.53;;
7426;SDS011;3755;59.316;18.092;2023-02-04T01:25:19;2.20;;;1.00;;
7426;SDS011;3755;59.316;18.092;2023-02-04T01:27:53;2.30;;;1.00;;
7426;SDS011;3755;59.316;18.092;2023-02-04T01:30:35;4.20;;;1.10;;
7426;SDS011;3755;59.316;18.092;2023-02-04T01:33:03;1.60;;;1.10;;
7426;SDS011;3755;59.316;18.092;2023-02-04T01:38:36;1.40;;;0.80;;
7426;SDS011;3755;59.316;18.092;2023-02-04T01:41:17;3.10;;;1.13;;
7426;SDS011;3755;59.316;18.092;2023-02-04T01:43:59;2.20;;;1.10;;
7426;SDS011;3755;59.316;18.092;2023-02-04T01:46:35;4.33;;;1.30;;
7426;SDS011;3755;59.316;18.092;2023-02-04T01:49:05;5.73;;;1.10;;
7426;SDS011;3755;59.316;18.092;2023-02-04T02:04:30;3.60;;;1.10;;
7426;SDS011;3755;59.316;18.092;2023-02-04T02:10:41;1.80;;;1.53;;
7426;SDS011;3755;59.316;18.092;2023-02-04T02:16:32;1.97;;;1.30;;
7426;SDS011;3755;59.316;18.092;2023-02-04T02:19:04;4.40;;;1.30;;
7426;SDS011;3755;59.316;18.092;2023-02-04T02:32:01;2.67;;;1.20;;
7426;SDS011;3755;59.316;18.092;2023-02-04T02:35:13;2.50;;;1.10;;
7426;SDS011;3755;59.316;18.092;2023-02-04T02:37:56;0.83;;;0.77;;
7426;SDS011;3755;59.316;18.092;2023-02-04T02:40:29;4.00;;;1.20;;
7426;SDS011;3755;59.316;18.092;2023-02-04T02:42:59;1.00;;;0.90;;
7426;SDS011;3755;59.316;18.092;2023-02-04T02:45:37;1.93;;;1.07;;
7426;SDS011;3755;59.316;18.092;2023-02-04T02:54:48;4.47;;;1.10;;
7426;SDS011;3755;59.316;18.092;2023-02-04T02:57:30;7.57;;;1.20;;
7426;SDS011;3755;59.316;18.092;2023-02-04T03:00:15;2.60;;;1.30;;
7426;SDS011;3755;59.316;18.092;2023-02-04T03:03:00;2.90;;;1.20;;
7426;SDS011;3755;59.316;18.092;2023-02-04T03:15:46;2.90;;;1.00;;
7426;SDS011;3755;59.316;18.092;2023-02-04T03:21:58;1.93;;;1.00;;
7426;SDS011;3755;59.316;18.092;2023-02-04T03:30:48;3.50;;;1.10;;
7426;SDS011;3755;59.316;18.092;2023-02-04T03:33:34;3.90;;;1.20;;
7426;SDS011;3755;59.316;18.092;2023-02-04T03:36:07;3.47;;;1.20;;
7426;SDS011;3755;59.316;18.092;2023-02-04T03:38:48;4.83;;;1.00;;
7426;SDS011;3755;59.316;18.092;2023-02-04T03:41:29;1.30;;;1.00;;
7426;SDS011;3755;59.316;18.092;2023-02-04T03:44:23;3.43;;;1.20;;
7426;SDS011;3755;59.316;18.092;2023-02-04T03:46:58;2.23;;;1.07;;
7426;SDS011;3755;59.316;18.092;2023-02-04T03:49:27;1.27;;;0.77;;
7426;SDS011;3755;59.316;18.092;2023-02-04T03:52:08;1.77;;;1.07;;
7426;SDS011;3755;59.316;18.092;2023-02-04T03:54:36;1.97;;;1.00;;
7426;SDS011;3755;59.316;18.092;2023-02-04T03:57:03;2.63;;;0.90;;
7426;SDS011;3755;59.316;18.092;2023-02-04T03:59:42;4.50;;;1.53;;
7426;SDS011;3755;59.316;18.092;2023-02-04T04:02:15;2.23;;;1.17;;
7426;SDS011;3755;59.316;18.092;2023-02-04T04:04:45;1.53;;;1.00;;
7426;SDS011;3755;59.316;18.092;2023-02-04T04:07:13;2.93;;;1.07;;
7426;SDS011;3755;59.316;18.092;2023-02-04T04:09:42;5.93;;;0.93;;
7426;SDS011;3755;59.316;18.092;2023-02-04T04:12:11;4.77;;;1.37;;
7426;SDS011;3755;59.316;18.092;2023-02-04T04:14:59;2.93;;;1.00;;
7426;SDS011;3755;59.316;18.092;2023-02-04T04:17:34;5.07;;;1.10;;
7426;SDS011;3755;59.316;18.092;2023-02-04T04:20:15;3.13;;;1.20;;
7426;SDS011;3755;59.316;18.092;2023-02-04T04:22:44;3.33;;;1.70;;
7426;SDS011;3755;59.316;18.092;2023-02-04T04:25:16;3.73;;;1.10;;
7426;SDS011;3755;59.316;18.092;2023-02-04T04:27:54;1.73;;;1.03;;
7426;SDS011;3755;59.316;18.092;2023-02-04T04:30:28;2.73;;;1.33;;
7426;SDS011;3755;59.316;18.092;2023-02-04T04:33:11;2.93;;;1.17;;
7426;SDS011;3755;59.316;18.092;2023-02-04T04:35:38;1.30;;;1.00;;
7426;SDS011;3755;59.316;18.092;2023-02-04T04:38:21;3.00;;;1.10;;
7426;SDS011;3755;59.316;18.092;2023-02-04T04:40:49;2.10;;;0.97;;
7426;SDS011;3755;59.316;18.092;2023-02-04T04:43:26;2.70;;;0.97;;
7426;SDS011;3755;59.316;18.092;2023-02-04T04:46:00;4.33;;;1.00;;
7426;SDS011;3755;59.316;18.092;2023-02-04T04:48:30;5.93;;;1.30;;
7426;SDS011;3755;59.316;18.092;2023-02-04T04:50:57;1.83;;;1.00;;
7426;SDS011;3755;59.316;18.092;2023-02-04T04:53:25;2.40;;;1.00;;
7426;SDS011;3755;59.316;18.092;2023-02-04T04:55:56;1.80;;;1.20;;
7426;SDS011;3755;59.316;18.092;2023-02-04T04:58:26;4.33;;;1.17;;
7426;SDS011;3755;59.316;18.092;2023-02-04T05:00:53;3.07;;;0.97;;
7426;SDS011;3755;59.316;18.092;2023-02-04T05:06:38;1.83;;;0.90;;
7426;SDS011;3755;59.316;18.092;2023-02-04T05:09:11;1.17;;;0.80;;
7426;SDS011;3755;59.316;18.092;2023-02-04T05:11:39;1.17;;;0.80;;
7426;SDS011;3755;59.316;18.092;2023-02-04T05:14:20;2.57;;;1.00;;
7426;SDS011;3755;59.316;18.092;2023-02-04T05:17:01;1.20;;;1.10;;
7426;SDS011;3755;59.316;18.092;2023-02-04T05:19:32;1.93;;;0.90;;
7426;SDS011;3755;59.316;18.092;2023-02-04T05:22:20;4.53;;;1.20;;
7426;SDS011;3755;59.316;18.092;2023-02-04T05:24:51;1.97;;;1.00;;
7426;SDS011;3755;59.316;18.092;2023-02-04T05:27:18;2.80;;;1.00;;
7426;SDS011;3755;59.316;18.092;2023-02-04T05:29:47;2.73;;;1.00;;
7426;SDS011;3755;59.316;18.092;2023-02-04T05:32:14;2.93;;;0.87;;
7426;SDS011;3755;59.316;18.092;2023-02-04T05:34:42;1.13;;;1.03;;
7426;SDS011;3755;59.316;18.092;2023-02-04T05:37:09;3.93;;;1.30;;
7426;SDS011;3755;59.316;18.092;2023-02-04T05:39:47;4.27;;;1.47;;
7426;SDS011;3755;59.316;18.092;2023-02-04T05:42:28;2.10;;;1.00;;
7426;SDS011;3755;59.316;18.092;2023-02-04T05:45:10;2.53;;;0.90;;
7426;SDS011;3755;59.316;18.092;2023-02-04T05:47:41;2.77;;;1.03;;
7426;SDS011;3755;59.316;18.092;2023-02-04T05:50:10;3.53;;;1.13;;
7426;SDS011;3755;59.316;18.092;2023-02-04T05:52:38;2.50;;;0.90;;
7426;SDS011;3755;59.316;18.092;2023-02-04T05:55:09;8.07;;;1.57;;
7426;SDS011;3755;59.316;18.092;2023-02-04T05:57:42;2.37;;;0.93;;
7426;SDS011;3755;59.316;18.092;2023-02-04T06:00:12;1.10;;;1.10;;
7426;SDS011;3755;59.316;18.092;2023-02-04T06:02:41;3.70;;;1.10;;
7426;SDS011;3755;59.316;18.092;2023-02-04T06:05:09;1.70;;;1.00;;
7426;SDS011;3755;59.316;18.092;2023-02-04T06:07:37;3.57;;;1.20;;
7426;SDS011;3755;59.316;18.092;2023-02-04T06:10:04;5.07;;;1.07;;
7426;SDS011;3755;59.316;18.092;2023-02-04T06:12:47;3.10;;;1.00;;
7426;SDS011;3755;59.316;18.092;2023-02-04T06:15:19;3.63;;;1.33;;
7426;SDS011;3755;59.316;18.092;2023-02-04T06:18:00;1.43;;;1.00;;
7426;SDS011;3755;59.316;18.092;2023-02-04T06:20:38;2.97;;;1.40;;
7426;SDS011;3755;59.316;18.092;2023-02-04T06:23:19;3.73;;;1.00;;
7426;SDS011;3755;59.316;18.092;2023-02-04T06:25:48;1.93;;;0.93;;
7426;SDS011;3755;59.316;18.092;2023-02-04T06:28:30;0.83;;;0.77;;
7426;SDS011;3755;59.316;18.092;2023-02-04T06:30:58;6.10;;;1.20;;
7426;SDS011;3755;59.316;18.092;2023-02-04T06:33:25;1.43;;;0.80;;
7426;SDS011;3755;59.316;18.092;2023-02-04T06:35:54;2.90;;;1.30;;
7426;SDS011;3755;59.316;18.092;2023-02-04T06:38:22;3.23;;;0.80;;
7426;SDS011;3755;59.316;18.092;2023-02-04T06:40:58;1.40;;;0.93;;
7426;SDS011;3755;59.316;18.092;2023-02-04T06:43:26;3.40;;;1.10;;
7426;SDS011;3755;59.316;18.092;2023-02-04T06:45:54;3.23;;;1.10;;
7426;SDS011;3755;59.316;18.092;2023-02-04T06:48:22;2.37;;;0.90;;
7426;SDS011;3755;59.316;18.092;2023-02-04T06:50:50;4.17;;;1.10;;
7426;SDS011;3755;59.316;18.092;2023-02-04T06:53:33;3.73;;;1.40;;
7426;SDS011;3755;59.316;18.092;2023-02-04T06:56:02;7.20;;;1.10;;
7426;SDS011;3755;59.316;18.092;2023-02-04T06:58:34;1.53;;;0.77;;
7426;SDS011;3755;59.316;18.092;2023-02-04T07:01:04;3.40;;;1.07;;
7426;SDS011;3755;59.316;18.092;2023-02-04T07:03:36;1.37;;;0.80;;
7426;SDS011;3755;59.316;18.092;2023-02-04T07:06:04;5.73;;;1.43;;
7426;SDS011;3755;59.316;18.092;2023-02-04T07:08:36;2.00;;;1.00;;
7426;SDS011;3755;59.316;18.092;2023-02-04T07:11:19;4.90;;;1.00;;
7426;SDS011;3755;59.316;18.092;2023-02-04T07:13:47;2.63;;;1.13;;
7426;SDS011;3755;59.316;18.092;2023-02-04T07:16:14;3.13;;;0.90;;
7426;SDS011;3755;59.316;18.092;2023-02-04T07:18:42;2.63;;;1.40;;
7426;SDS011;3755;59.316;18.092;2023-02-04T07:21:09;2.00;;;1.30;;
7426;SDS011;3755;59.316;18.092;2023-02-04T07:23:37;3.47;;;0.97;;
7426;SDS011;3755;59.316;18.092;2023-02-04T07:26:05;1.60;;;0.90;;
7426;SDS011;3755;59.316;18.092;2023-02-04T07:28:34;1.43;;;0.90;;
7426;SDS011;3755;59.316;18.092;2023-02-04T07:31:05;2.60;;;1.10;;
7426;SDS011;3755;59.316;18.092;2023-02-04T07:33:33;5.07;;;1.37;;
7426;SDS011;3755;59.316;18.092;2023-02-04T07:36:04;2.03;;;0.90;;
7426;SDS011;3755;59.316;18.092;2023-02-04T07:38:32;0.83;;;0.80;;
7426;SDS011;3755;59.316;18.092;2023-02-04T07:41:01;4.10;;;1.00;;
7426;SDS011;3755;59.316;18.092;2023-02-04T07:43:42;2.07;;;1.00;;
7426;SDS011;3755;59.316;18.092;2023-02-04T07:46:10;1.97;;;1.30;;
7426;SDS011;3755;59.316;18.092;2023-02-04T07:48:38;2.50;;;0.90;;
7426;SDS011;3755;59.316;18.092;2023-02-04T07:51:05;3.67;;;1.20;;
7426;SDS011;3755;59.316;18.092;2023-02-04T07:53:35;2.07;;;1.20;;
7426;SDS011;3755;59.316;18.092;2023-02-04T07:56:16;3.43;;;1.43;;
7426;SDS011;3755;59.316;18.092;2023-02-04T07:58:48;3.63;;;1.23;;
7426;SDS011;3755;59.316;18.092;2023-02-04T08:01:16;5.23;;;1.37;;
7426;SDS011;3755;59.316;18.092;2023-02-04T08:03:43;3.23;;;1.40;;
7426;SDS011;3755;59.316;18.092;2023-02-04T08:06:10;3.27;;;1.43;;
7426;SDS011;3755;59.316;18.092;2023-02-04T08:08:38;3.63;;;1.10;;
7426;SDS011;3755;59.316;18.092;2023-02-04T08:11:05;5.23;;;1.10;;
7426;SDS011;3755;59.316;18.092;2023-02-04T08:13:32;2.73;;;0.83;;
7426;SDS011;3755;59.316;18.092;2023-02-04T08:16:02;5.73;;;1.30;;
7426;SDS011;3755;59.316;18.092;2023-02-04T08:18:40;4.83;;;0.90;;
7426;SDS011;3755;59.316;18.092;2023-02-04T08:21:09;3.57;;;1.27;;
7426;SDS011;3755;59.316;18.092;2023-02-04T08:23:36;5.00;;;1.23;;
7426;SDS011;3755;59.316;18.092;2023-02-04T08:26:06;2.50;;;1.20;;
7426;SDS011;3755;59.316;18.092;2023-02-04T08:28:48;4.93;;;1.37;;
7426;SDS011;3755;59.316;18.092;2023-02-04T08:31:22;3.77;;;1.20;;
7426;SDS011;3755;59.316;18.092;2023-02-04T08:34:06;1.43;;;1.10;;
7426;SDS011;3755;59.316;18.092;2023-02-04T08:36:33;4.53;;;1.10;;
7426;SDS011;3755;59.316;18.092;2023-02-04T08:39:01;1.13;;;0.70;;
7426;SDS011;3755;59.316;18.092;2023-02-04T08:41:30;2.87;;;0.93;;
7426;SDS011;3755;59.316;18.092;2023-02-04T08:44:11;1.63;;;1.40;;
7426;SDS011;3755;59.316;18.092;2023-02-04T08:46:48;4.57;;;1.63;;
7426;SDS011;3755;59.316;18.092;2023-02-04T08:49:29;4.33;;;1.10;;
7426;SDS011;3755;59.316;18.092;2023-02-04T08:52:12;1.37;;;0.90;;
7426;SDS011;3755;59.316;18.092;2023-02-04T08:54:53;1.57;;;0.87;;
7426;SDS011;3755;59.316;18.092;2023-02-04T08:57:34;2.83;;;1.07;;
7426;SDS011;3755;59.316;18.092;2023-02-04T09:00:17;3.57;;;0.97;;
7426;SDS011;3755;59.316;18.092;2023-02-04T09:09:19;4.27;;;1.03;;
7426;SDS011;3755;59.316;18.092;2023-02-04T09:22:06;4.13;;;0.90;;
7426;SDS011;3755;59.316;18.092;2023-02-04T09:25:05;3.60;;;1.27;;
7426;SDS011;3755;59.316;18.092;2023-02-04T09:27:47;5.43;;;1.37;;
7426;SDS011;3755;59.316;18.092;2023-02-04T09:30:30;1.23;;;0.83;;
7426;SDS011;3755;59.316;18.092;2023-02-04T09:33:12;4.20;;;1.30;;
7426;SDS011;3755;59.316;18.092;2023-02-04T09:35:56;1.37;;;0.83;;
7426;SDS011;3755;59.316;18.092;2023-02-04T09:48:17;3.03;;;1.27;;
7426;SDS011;3755;59.316;18.092;2023-02-04T09:54:24;2.10;;;1.10;;
7426;SDS011;3755;59.316;18.092;2023-02-04T09:57:09;3.43;;;1.07;;
7426;SDS011;3755;59.316;18.092;2023-02-04T09:59:49;5.93;;;1.47;;
7426;SDS011;3755;59.316;18.092;2023-02-04T10:12:12;2.97;;;1.17;;
7426;SDS011;3755;59.316;18.092;2023-02-04T10:15:03;6.17;;;1.17;;
7426;SDS011;3755;59.316;18.092;2023-02-04T10:17:51;2.67;;;1.50;;
7426;SDS011;3755;59.316;18.092;2023-02-04T10:20:38;2.03;;;0.80;;
7426;SDS011;3755;59.316;18.092;2023-02-04T10:26:52;1.03;;;0.90;;
7426;SDS011;3755;59.316;18.092;2023-02-04T10:45:56;6.77;;;1.10;;
7426;SDS011;3755;59.316;18.092;2023-02-04T10:48:39;2.57;;;1.00;;
7426;SDS011;3755;59.316;18.092;2023-02-04T10:51:11;2.63;;;0.97;;
7426;SDS011;3755;59.316;18.092;2023-02-04T10:53:54;3.80;;;1.23;;
7426;SDS011;3755;59.316;18.092;2023-02-04T10:56:39;1.80;;;0.87;;
7426;SDS011;3755;59.316;18.092;2023-02-04T10:59:30;2.47;;;0.97;;
7426;SDS011;3755;59.316;18.092;2023-02-04T11:15:41;1.80;;;0.80;;
7426;SDS011;3755;59.316;18.092;2023-02-04T11:18:28;4.40;;;1.07;;
7426;SDS011;3755;59.316;18.092;2023-02-04T11:21:12;3.43;;;1.13;;
7426;SDS011;3755;59.316;18.092;2023-02-04T11:27:36;1.77;;;1.13;;
7426;SDS011;3755;59.316;18.092;2023-02-04T11:40:22;2.93;;;1.17;;
7426;SDS011;3755;59.316;18.092;2023-02-04T11:46:29;6.43;;;1.37;;
7426;SDS011;3755;59.316;18.092;2023-02-04T11:52:35;1.47;;;0.63;;
7426;SDS011;3755;59.316;18.092;2023-02-04T12:02:03;2.40;;;1.30;;
7426;SDS011;3755;59.316;18.092;2023-02-04T12:04:55;3.13;;;1.33;;
7426;SDS011;3755;59.316;18.092;2023-02-04T12:07:26;4.03;;;1.00;;
7426;SDS011;3755;59.316;18.092;2023-02-04T13:37:50;2.77;;;1.40;;
7426;SDS011;3755;59.316;18.092;2023-02-04T13:43:29;3.40;;;1.13;;
7426;SDS011;3755;59.316;18.092;2023-02-04T13:46:33;2.13;;;1.00;;
7426;SDS011;3755;59.316;18.092;2023-02-04T18:03:18;15.77;;;6.80;;
7426;SDS011;3755;59.316;18.092;2023-02-04T18:06:18;6.43;;;3.60;;
7426;SDS011;3755;59.316;18.092;2023-02-04T18:09:00;10.03;;;4.33;;
7426;SDS011;3755;59.316;18.092;2023-02-04T18:11:45;10.33;;;4.23;;
7426;SDS011;3755;59.316;18.092;2023-02-04T18:14:26;15.17;;;6.43;;
7426;SDS011;3755;59.316;18.092;2023-02-04T18:17:08;9.27;;;4.60;;
7426;SDS011;3755;59.316;18.092;2023-02-04T18:19:57;13.27;;;5.10;;
7426;SDS011;3755;59.316;18.092;2023-02-04T18:32:19;15.23;;;6.30;;
7426;SDS011;3755;59.316;18.092;2023-02-04T18:54:56;10.80;;;3.53;;
7426;SDS011;3755;59.316;18.092;2023-02-04T18:57:46;12.17;;;4.50;;
7426;SDS011;3755;59.316;18.092;2023-02-04T19:00:30;7.53;;;3.30;;
7426;SDS011;3755;59.316;18.092;2023-02-04T19:03:17;6.47;;;3.30;;
7426;SDS011;3755;59.316;18.092;2023-02-04T19:06:16;11.53;;;3.73;;
7426;SDS011;3755;59.316;18.092;2023-02-04T20:01:25;12.17;;;5.33;;
7426;SDS011;3755;59.316;18.092;2023-02-04T20:04:18;8.57;;;4.07;;
7426;SDS011;3755;59.316;18.092;2023-02-04T20:07:11;6.97;;;4.20;;
7426;SDS011;3755;59.316;18.092;2023-02-04T20:09:57;12.13;;;4.97;;
7426;SDS011;3755;59.316;18.092;2023-02-04T20:12:58;13.60;;;4.73;;
7426;SDS011;3755;59.316;18.092;2023-02-04T20:16:00;8.47;;;4.03;;
7426;SDS011;3755;59.316;18.092;2023-02-04T20:28:39;9.87;;;6.13;;
7426;SDS011;3755;59.316;18.092;2023-02-04T20:31:27;23.20;;;10.33;;
7426;SDS011;3755;59.316;18.092;2023-02-04T20:34:20;7.33;;;4.50;;
7426;SDS011;3755;59.316;18.092;2023-02-04T20:37:07;14.50;;;6.47;;
7426;SDS011;3755;59.316;18.092;2023-02-04T20:39:52;14.37;;;6.10;;
7426;SDS011;3755;59.316;18.092;2023-02-04T20:42:39;10.70;;;4.30;;
7426;SDS011;3755;59.316;18.092;2023-02-04T20:45:26;10.50;;;4.27;;
7426;SDS011;3755;59.316;18.092;2023-02-04T20:51:14;8.63;;;4.07;;
7426;SDS011;3755;59.316;18.092;2023-02-04T20:54:07;13.67;;;5.43;;
7426;SDS011;3755;59.316;18.092;2023-02-04T20:56:55;14.43;;;5.80;;
7426;SDS011;3755;59.316;18.092;2023-02-04T20:59:46;12.70;;;6.67;;
7426;SDS011;3755;59.316;18.092;2023-02-04T21:05:28;16.57;;;8.87;;
7426;SDS011;3755;59.316;18.092;2023-02-04T21:08:24;15.17;;;7.83;;
7426;SDS011;3755;59.316;18.092;2023-02-04T21:11:18;15.10;;;6.30;;
7426;SDS011;3755;59.316;18.092;2023-02-04T21:13:59;13.73;;;6.37;;
7426;SDS011;3755;59.316;18.092;2023-02-04T21:16:41;12.63;;;5.10;;
7426;SDS011;3755;59.316;18.092;2023-02-04T21:19:23;13.03;;;4.90;;
7426;SDS011;3755;59.316;18.092;2023-02-04T21:21:58;11.83;;;5.17;;
7426;SDS011;3755;59.316;18.092;2023-02-04T21:24:26;11.03;;;5.27;;
7426;SDS011;3755;59.316;18.092;2023-02-04T21:27:09;11.80;;;4.73;;
7426;SDS011;3755;59.316;18.092;2023-02-04T21:29:50;11.27;;;5.10;;
7426;SDS011;3755;59.316;18.092;2023-02-04T21:32:32;12.80;;;5.33;;
7426;SDS011;3755;59.316;18.092;2023-02-04T21:35:13;9.07;;;4.80;;
7426;SDS011;3755;59.316;18.092;2023-02-04T21:37:50;12.60;;;6.00;;
7426;SDS011;3755;59.316;18.092;2023-02-04T21:40:42;12.90;;;5.57;;
7426;SDS011;3755;59.316;18.092;2023-02-04T21:43:24;10.37;;;5.07;;
7426;SDS011;3755;59.316;18.092;2023-02-04T21:46:01;11.60;;;5.53;;
7426;SDS011;3755;59.316;18.092;2023-02-04T21:48:32;9.37;;;4.20;;
7426;SDS011;3755;59.316;18.092;2023-02-04T21:51:00;11.83;;;4.70;;
7426;SDS011;3755;59.316;18.092;2023-02-04T21:53:43;9.73;;;4.80;;
7426;SDS011;3755;59.316;18.092;2023-02-04T21:56:25;10.97;;;4.70;;
7426;SDS011;3755;59.316;18.092;2023-02-04T21:59:06;8.93;;;4.33;;
7426;SDS011;3755;59.316;18.092;2023-02-04T22:01:34;11.93;;;4.90;;
7426;SDS011;3755;59.316;18.092;2023-02-04T22:04:03;11.03;;;4.77;;
7426;SDS011;3755;59.316;18.092;2023-02-04T22:06:45;9.40;;;4.77;;
7426;SDS011;3755;59.316;18.092;2023-02-04T22:09:27;7.43;;;3.97;;
7426;SDS011;3755;59.316;18.092;2023-02-04T22:12:08;8.57;;;4.17;;
7426;SDS011;3755;59.316;18.092;2023-02-04T22:14:37;7.20;;;4.00;;
7426;SDS011;3755;59.316;18.092;2023-02-04T22:17:22;7.60;;;3.80;;
7426;SDS011;3755;59.316;18.092;2023-02-04T22:20:04;6.80;;;3.37;;
7426;SDS011;3755;59.316;18.092;2023-02-04T22:22:46;9.67;;;3.80;;
7426;SDS011;3755;59.316;18.092;2023-02-04T22:25:18;11.87;;;3.97;;
7426;SDS011;3755;59.316;18.092;2023-02-04T22:28:00;9.80;;;3.43;;
7426;SDS011;3755;59.316;18.092;2023-02-04T22:30:29;8.87;;;3.60;;
7426;SDS011;3755;59.316;18.092;2023-02-04T22:32:56;10.80;;;4.30;;
7426;SDS011;3755;59.316;18.092;2023-02-04T22:35:25;13.80;;;5.30;;
7426;SDS011;3755;59.316;18.092;2023-02-04T22:37:54;11.50;;;5.63;;
7426;SDS011;3755;59.316;18.092;2023-02-04T22:43:35;7.50;;;3.40;;
7426;SDS011;3755;59.316;18.092;2023-02-04T22:46:33;6.57;;;3.60;;
7426;SDS011;3755;59.316;18.092;2023-02-04T22:49:30;6.60;;;2.93;;
7426;SDS011;3755;59.316;18.092;2023-02-04T22:52:41;8.43;;;3.20;;
7426;SDS011;3755;59.316;18.092;2023-02-04T22:55:20;5.00;;;3.00;;
7426;SDS011;3755;59.316;18.092;2023-02-04T22:58:03;4.87;;;1.67;;
7426;SDS011;3755;59.316;18.092;2023-02-04T23:00:34;6.30;;;2.30;;
7426;SDS011;3755;59.316;18.092;2023-02-04T23:03:02;7.90;;;2.60;;
7426;SDS011;3755;59.316;18.092;2023-02-04T23:05:44;8.23;;;2.97;;
7426;SDS011;3755;59.316;18.092;2023-02-04T23:08:25;6.40;;;2.47;;
7426;SDS011;3755;59.316;18.092;2023-02-04T23:11:09;6.80;;;2.60;;
7426;SDS011;3755;59.316;18.092;2023-02-04T23:13:57;6.10;;;2.40;;
7426;SDS011;3755;59.316;18.092;2023-02-04T23:16:44;12.60;;;3.03;;
7426;SDS011;3755;59.316;18.092;2023-02-04T23:19:25;5.53;;;2.83;;
7426;SDS011;3755;59.316;18.092;2023-02-04T23:21:57;6.63;;;2.50;;
7426;SDS011;3755;59.316;18.092;2023-02-04T23:24:40;4.73;;;2.97;;
7426;SDS011;3755;59.316;18.092;2023-02-04T23:27:21;6.70;;;2.80;;
7426;SDS011;3755;59.316;18.092;2023-02-04T23:29:49;6.77;;;2.43;;
7426;SDS011;3755;59.316;18.092;2023-02-04T23:32:34;7.30;;;2.67;;
7426;SDS011;3755;59.316;18.092;2023-02-04T23:35:15;8.30;;;2.90;;
7426;SDS011;3755;59.316;18.092;2023-02-04T23:37:45;6.10;;;3.10;;
7426;SDS011;3755;59.316;18.092;2023-02-04T23:40:13;5.60;;;3.50;;
7426;SDS011;3755;59.316;18.092;2023-02-04T23:42:41;4.23;;;2.40;;
7426;SDS011;3755;59.316;18.092;2023-02-04T23:45:11;16.93;;;3.17;;
7426;SDS011;3755;59.316;18.092;2023-02-04T23:47:40;14.03;;;2.97;;
7426;SDS011;3755;59.316;18.092;2023-02-04T23:50:19;8.03;;;2.77;;
7426;SDS011;3755;59.316;18.092;2023-02-04T23:52:47;7.60;;;2.50;;
7426;SDS011;3755;59.316;18.092;2023-02-04T23:55:17;5.53;;;2.30;;
7426;SDS011;3755;59.316;18.092;2023-02-04T23:57:47;4.23;;;2.33;;
